Time;durP1;ratioP1;P1;durP2;ratioP2;P2;SDS_P1;SDS_P2;PMS_P1;PMS_P2;Temp;Humidity;BMP_temperature;BMP_pressure;BME280_temperature;BME280_humidity;BME280_pressure;Samples;Min_cycle;Max_cycle;Signal;HPM_P1;HPM_P2
2021/09/16 00:01:55;;;;;;;;;0.00;0.00;;;;;27.31;49.33;100880.47;5057827;28;45317;-66
2021/09/16 00:04:22;;;;;;;;;0.00;0.00;;;;;27.31;48.99;100877.72;5057150;28;45382;-67
2021/09/16 00:06:47;;;;;;;;;0.00;0.00;;;;;27.31;48.80;100881.34;5056898;28;45568;-66
2021/09/16 00:09:12;;;;;;;;;0.00;0.00;;;;;27.29;49.07;100877.78;5057338;28;45369;-67
2021/09/16 00:11:38;;;;;;;;;0.00;0.00;;;;;27.30;48.63;100890.47;5057182;28;45903;-67
2021/09/16 00:14:03;;;;;;;;;0.00;0.00;;;;;27.30;48.83;100884.13;5056878;28;45429;-66
2021/09/16 00:16:29;;;;;;;;;0.00;0.00;;;;;27.29;49.20;100877.78;5056818;28;45381;-66
2021/09/16 00:18:55;;;;;;;;;0.00;0.00;;;;;27.30;49.20;100876.81;5056554;28;45483;-66
2021/09/16 00:21:20;;;;;;;;;0.00;0.00;;;;;27.28;48.46;100876.00;5056828;28;45506;-66
2021/09/16 00:23:46;;;;;;;;;0.00;0.00;;;;;27.30;48.69;100884.13;5056120;28;45437;-66
2021/09/16 00:26:11;;;;;;;;;0.00;0.00;;;;;27.29;48.84;100882.38;5056460;28;45576;-67
2021/09/16 00:28:38;;;;;;;;;0.00;0.00;;;;;27.28;49.06;100881.47;5056551;28;45490;-67
2021/09/16 00:31:03;;;;;;;;;0.00;0.00;;;;;27.27;48.37;100881.59;5038597;28;45445;-67
2021/09/16 00:33:29;;;;;;;;;0.00;0.00;;;;;27.25;48.30;100880.78;5056217;28;46420;-67
2021/09/16 00:35:54;;;;;;;;;0.00;0.00;;;;;27.26;48.72;100888.88;5056414;28;45443;-67
2021/09/16 00:38:19;;;;;;;;;0.00;0.00;;;;;27.25;48.80;100892.59;5056177;28;45492;-66
2021/09/16 00:40:45;;;;;;;;;0.00;0.00;;;;;27.26;48.86;100905.25;5056225;28;45395;-66
2021/09/16 00:43:10;;;;;;;;;0.00;0.00;;;;;27.26;48.16;100904.38;5037568;28;46822;-66
2021/09/16 00:45:35;;;;;;;;;0.00;0.00;;;;;27.24;48.23;100901.72;5055967;28;44748;-67
2021/09/16 00:48:01;;;;;;;;;0.00;0.00;;;;;27.24;48.90;100899.00;5037873;28;45460;-67
2021/09/16 00:50:26;;;;;;;;;0.00;0.00;;;;;27.23;48.71;100908.16;5056531;28;45447;-67
2021/09/16 00:52:53;;;;;;;;;0.00;0.00;;;;;27.22;48.15;100903.63;5055145;28;45945;-67
2021/09/16 00:55:20;;;;;;;;;0.00;0.00;;;;;27.22;48.78;100911.81;5055105;28;45407;-67
2021/09/16 00:57:51;;;;;;;;;0.00;0.00;;;;;27.20;48.82;100911.00;5037345;28;45512;-67
2021/09/16 01:00:18;;;;;;;;;0.00;0.00;;;;;27.20;48.08;100911.00;5056080;28;45494;-67
2021/09/16 01:02:43;;;;;;;;;0.00;0.00;;;;;27.12;48.32;100899.59;5055882;28;45916;-66
2021/09/16 01:05:10;;;;;;;;;0.00;0.00;;;;;27.18;48.72;100910.19;5056037;28;45353;-68
2021/09/16 01:07:38;;;;;;;;;0.00;0.00;;;;;27.16;48.59;100908.53;5056011;28;45689;-67
2021/09/16 01:10:04;;;;;;;;;0.00;0.00;;;;;27.18;48.45;100912.94;5056367;28;45521;-67
2021/09/16 01:12:30;;;;;;;;;0.00;0.00;;;;;27.17;48.13;100911.19;5055531;28;45506;-68
2021/09/16 01:14:55;;;;;;;;;0.00;0.00;;;;;27.13;48.14;100904.13;5055472;28;45604;-68
2021/09/16 01:17:21;;;;;;;;;0.00;0.00;;;;;27.14;48.09;100905.88;5053438;28;45541;-67
2021/09/16 01:19:47;;;;;;;;;0.00;0.00;;;;;27.16;48.38;100917.59;5055094;28;46376;-67
2021/09/16 01:22:18;;;;;;;;;0.00;0.00;;;;;27.17;48.50;100918.47;5055884;28;45693;-67
2021/09/16 01:24:43;;;;;;;;;0.00;0.00;;;;;27.13;48.08;100920.50;5056345;28;45809;-67
2021/09/16 01:27:09;;;;;;;;;0.00;0.00;;;;;27.16;48.00;100923.06;5055727;28;45722;-65
2021/09/16 01:29:34;;;;;;;;;0.00;0.00;;;;;27.15;47.95;100929.50;5038573;28;45723;-66
2021/09/16 01:32:04;;;;;;;;;0.00;0.00;;;;;27.15;48.25;100929.50;5037390;28;46082;-66
2021/09/16 01:34:29;;;;;;;;;0.00;0.00;;;;;27.15;48.39;100924.03;5055665;28;45421;-66
2021/09/16 01:36:55;;;;;;;;;0.00;0.00;;;;;27.16;48.09;100925.78;5055754;28;45440;-66
2021/09/16 01:39:20;;;;;;;;;0.00;0.00;;;;;27.12;47.83;100926.91;5020582;28;45401;-66
2021/09/16 01:41:46;;;;;;;;;0.00;0.00;;;;;27.11;47.85;100933.34;5055004;28;45437;-67
2021/09/16 01:44:13;;;;;;;;;0.00;0.00;;;;;27.10;48.13;100937.91;5036763;28;45608;-67
2021/09/16 01:46:38;;;;;;;;;0.00;0.00;;;;;27.12;48.36;100943.28;5055329;28;45585;-67
2021/09/16 01:49:04;;;;;;;;;0.00;0.00;;;;;27.11;48.15;100936.09;5055077;28;45507;-67
2021/09/16 01:51:32;;;;;;;;;0.00;0.00;;;;;27.10;47.49;100937.03;5054831;28;45529;-67
2021/09/16 01:53:57;;;;;;;;;0.00;0.00;;;;;27.09;47.70;100940.75;5054796;28;45370;-67
2021/09/16 01:56:23;;;;;;;;;0.00;0.00;;;;;27.08;47.53;100937.09;5055162;28;45379;-67
2021/09/16 01:58:48;;;;;;;;;0.00;0.00;;;;;27.10;48.21;100937.03;5036831;28;45828;-67
2021/09/16 02:01:13;;;;;;;;;0.00;0.00;;;;;27.09;48.17;100940.75;5054688;28;45438;-67
2021/09/16 02:03:39;;;;;;;;;0.00;0.00;;;;;27.08;47.54;100936.22;5054835;28;45417;-67
2021/09/16 02:06:04;;;;;;;;;0.00;0.00;;;;;27.07;47.75;100937.19;5054848;28;45326;-67
2021/09/16 02:08:30;;;;;;;;;0.00;0.00;;;;;27.04;47.52;100938.22;5037417;28;45430;-67
2021/09/16 02:10:55;;;;;;;;;0.00;0.00;;;;;27.04;47.67;100940.06;5055018;28;46192;-67
2021/09/16 02:13:22;;;;;;;;;0.00;0.00;;;;;27.05;47.40;100944.59;5054661;28;45404;-67
2021/09/16 02:15:47;;;;;;;;;0.00;0.00;;;;;27.01;47.90;100938.41;5054868;28;45391;-67
2021/09/16 02:18:13;;;;;;;;;0.00;0.00;;;;;27.04;47.32;100942.81;5036419;28;45479;-67
2021/09/16 02:20:38;;;;;;;;;0.00;0.00;;;;;27.02;47.89;100948.34;5054407;28;45790;-67
2021/09/16 02:23:04;;;;;;;;;0.00;0.00;;;;;27.03;47.26;100946.50;5054806;28;45464;-67
2021/09/16 02:25:30;;;;;;;;;0.00;0.00;;;;;26.98;47.35;100934.94;5054651;28;45409;-66
2021/09/16 02:27:55;;;;;;;;;0.67;0.67;;;;;27.01;47.83;100942.97;5054353;28;45514;-67
2021/09/16 02:30:20;;;;;;;;;0.00;0.00;;;;;27.00;47.29;100946.66;5054340;28;46055;-67
2021/09/16 02:32:46;;;;;;;;;0.00;0.00;;;;;26.98;47.62;100941.28;5054438;28;45424;-67
2021/09/16 02:35:12;;;;;;;;;0.00;0.00;;;;;26.98;47.28;100948.59;5054294;28;45496;-66
2021/09/16 02:37:39;;;;;;;;;0.00;0.00;;;;;27.00;47.64;100952.13;5035834;28;45426;-67
2021/09/16 02:40:06;;;;;;;;;0.00;0.00;;;;;26.99;47.67;100953.09;5035772;28;46647;-67
2021/09/16 02:42:31;;;;;;;;;0.00;0.00;;;;;26.98;47.68;100948.59;5035830;28;45815;-67
2021/09/16 02:44:57;;;;;;;;;0.00;0.00;;;;;26.96;47.51;100951.38;5054396;28;45730;-67
2021/09/16 02:47:22;;;;;;;;;0.00;0.00;;;;;26.97;47.25;100957.75;5054525;28;45509;-67
2021/09/16 02:49:48;;;;;;;;;0.00;0.00;;;;;26.96;47.57;100951.38;5054042;28;46131;-67
2021/09/16 02:52:13;;;;;;;;;0.00;0.00;;;;;26.94;47.02;100947.84;5054322;28;45401;-67
2021/09/16 02:54:38;;;;;;;;;0.00;0.00;;;;;26.96;46.92;100948.66;5054452;28;45691;-66
2021/09/16 02:57:04;;;;;;;;;0.00;0.00;;;;;26.94;47.25;100956.94;5054124;28;45569;-66
2021/09/16 02:59:29;;;;;;;;;0.00;0.00;;;;;26.93;47.75;100946.97;5053762;28;45732;-67
2021/09/16 03:01:56;;;;;;;;;0.00;0.00;;;;;26.92;47.35;100950.69;5054005;28;45459;-66
2021/09/16 03:04:21;;;;;;;;;0.00;0.00;;;;;26.93;47.66;100955.16;5054552;28;45796;-67
2021/09/16 03:06:47;;;;;;;;;0.00;0.00;;;;;26.93;47.48;100957.88;5036198;28;45441;-67
2021/09/16 03:09:12;;;;;;;;;0.00;0.00;;;;;26.94;47.67;100958.75;5053918;28;44999;-67
2021/09/16 03:11:38;;;;;;;;;0.00;0.00;;;;;26.92;47.31;100961.59;5053881;28;45462;-67
2021/09/16 03:14:04;;;;;;;;;0.00;0.00;;;;;26.93;46.97;100957.88;5053875;28;45774;-67
2021/09/16 03:16:30;;;;;;;;;0.00;0.00;;;;;26.93;47.62;100962.47;5054401;28;45487;-67
2021/09/16 03:18:55;;;;;;;;;0.00;0.00;;;;;26.91;47.50;100959.81;5038315;28;46925;-67
2021/09/16 03:21:21;;;;;;;;;0.00;0.00;;;;;26.93;47.53;100957.88;5055168;28;45523;-66
2021/09/16 03:23:46;;;;;;;;;0.00;0.00;;;;;26.90;47.47;100952.56;5058076;28;45487;-66
2021/09/16 03:26:13;;;;;;;;;0.00;0.00;;;;;26.92;47.26;100961.59;5040045;28;45468;-66
2021/09/16 03:28:40;;;;;;;;;0.00;0.00;;;;;26.93;47.48;100968.81;5057500;28;45021;-67
2021/09/16 03:31:06;;;;;;;;;0.00;0.00;;;;;26.89;47.44;100961.75;5057474;28;45569;-67
2021/09/16 03:33:32;;;;;;;;;0.00;0.00;;;;;26.90;46.81;100966.22;5057508;28;45483;-67
2021/09/16 03:35:58;;;;;;;;;0.00;0.00;;;;;26.91;47.26;100968.00;5057750;28;45362;-67
2021/09/16 03:38:23;;;;;;;;;0.00;0.00;;;;;26.87;46.86;100963.66;5057086;28;45632;-68
2021/09/16 03:40:48;;;;;;;;;0.00;0.00;;;;;26.89;47.17;100966.31;5057068;28;45442;-67
2021/09/16 03:43:14;;;;;;;;;0.00;0.00;;;;;26.90;47.17;100968.94;5039061;28;45415;-67
2021/09/16 03:45:39;;;;;;;;;0.00;0.00;;;;;26.86;46.94;100961.00;5057492;28;45541;-67
2021/09/16 03:48:05;;;;;;;;;0.00;0.00;;;;;26.88;46.88;100962.69;5038715;28;46896;-67
2021/09/16 03:50:30;;;;;;;;;0.00;0.00;;;;;26.87;46.82;100960.06;5056781;28;45453;-67
2021/09/16 03:52:56;;;;;;;;;0.00;0.00;;;;;26.89;46.70;100969.94;5038902;28;45847;-67
2021/09/16 03:55:21;;;;;;;;;0.00;0.00;;;;;26.88;46.86;100965.41;5039098;28;45488;-67
2021/09/16 03:57:46;;;;;;;;;0.00;0.00;;;;;26.88;47.20;100970.88;5039269;28;47180;-67
2021/09/16 04:00:12;;;;;;;;;0.00;0.00;;;;;26.86;46.47;100961.88;5057460;28;45442;-67
2021/09/16 04:02:39;;;;;;;;;0.00;0.00;;;;;26.87;46.60;100974.56;5057422;28;45765;-67
2021/09/16 04:05:04;;;;;;;;;0.00;0.00;;;;;26.86;46.96;100961.88;5057012;28;45734;-67
2021/09/16 04:07:30;;;;;;;;;0.00;0.00;;;;;26.87;46.61;100974.56;5038639;28;47245;-66
2021/09/16 04:09:56;;;;;;;;;0.00;0.00;;;;;26.87;46.99;100979.16;5056957;28;45440;-66
2021/09/16 04:12:21;;;;;;;;;0.00;0.00;;;;;26.85;46.96;100981.97;5057125;28;45752;-67
2021/09/16 04:14:48;;;;;;;;;0.00;0.00;;;;;26.84;46.76;100985.63;5057229;28;45342;-67
2021/09/16 04:17:13;;;;;;;;;0.00;0.00;;;;;26.85;46.54;100984.69;5056910;28;46320;-67
2021/09/16 04:19:39;;;;;;;;;0.00;0.00;;;;;26.84;46.49;100985.63;5056531;28;45413;-67
2021/09/16 04:22:05;;;;;;;;;0.00;0.00;;;;;26.81;46.45;100984.94;5056615;28;45479;-67
2021/09/16 04:24:30;;;;;;;;;0.00;0.00;;;;;26.80;46.43;100986.75;5056478;28;45346;-67
2021/09/16 04:26:55;;;;;;;;;0.00;0.00;;;;;26.82;46.65;100998.47;5056280;28;45898;-67
2021/09/16 04:29:21;;;;;;;;;0.00;0.00;;;;;26.81;46.59;100999.44;5055914;28;45583;-67
2021/09/16 04:31:46;;;;;;;;;0.00;0.00;;;;;26.78;46.61;100987.78;5056648;28;45514;-67
2021/09/16 04:34:11;;;;;;;;;0.00;0.00;;;;;26.78;46.49;100988.66;5056562;28;45546;-67
2021/09/16 04:36:37;;;;;;;;;0.00;0.00;;;;;26.80;46.88;100989.47;5055864;28;45444;-67
2021/09/16 04:39:04;;;;;;;;;0.00;0.00;;;;;26.80;46.86;100983.13;5055898;28;45448;-67
2021/09/16 04:41:31;;;;;;;;;0.50;0.50;;;;;26.78;46.65;100975.03;5056367;28;45429;-67
2021/09/16 04:43:56;;;;;;;;;0.00;0.00;;;;;26.79;46.29;100981.38;5038065;28;45767;-67
2021/09/16 04:46:28;;;;;;;;;0.00;0.00;;;;;26.79;46.41;100981.38;5056150;28;45429;-67
2021/09/16 04:48:55;;;;;;;;;0.00;0.00;;;;;26.76;46.37;100987.84;5056109;28;45753;-67
2021/09/16 04:51:20;;;;;;;;;0.00;0.00;;;;;26.79;46.33;100978.66;5056126;28;44841;-67
2021/09/16 04:53:45;;;;;;;;;0.00;0.00;;;;;26.78;46.32;100985.06;5056238;28;45516;-67
2021/09/16 04:56:11;;;;;;;;;0.00;0.00;;;;;26.77;46.89;100983.31;5056206;28;45396;-67
2021/09/16 04:58:36;;;;;;;;;0.00;0.00;;;;;26.75;46.45;100980.66;5056220;28;45757;-67
2021/09/16 05:01:02;;;;;;;;;0.00;0.00;;;;;26.74;46.79;100971.59;5037911;28;45418;-67
2021/09/16 05:03:27;;;;;;;;;0.00;0.00;;;;;26.76;46.36;100987.84;5056388;28;45416;-67
2021/09/16 05:05:52;;;;;;;;;0.00;0.00;;;;;26.77;46.64;100988.78;5055624;28;45390;-67
2021/09/16 05:08:18;;;;;;;;;0.00;0.00;;;;;26.70;46.92;100979.97;5055588;28;45496;-67
2021/09/16 05:10:43;;;;;;;;;0.00;0.00;;;;;26.75;46.26;100997.03;5056314;28;45608;-67
2021/09/16 05:13:10;;;;;;;;;0.00;0.00;;;;;26.76;46.67;100998.78;5055900;28;45352;-67
2021/09/16 05:15:35;;;;;;;;;0.00;0.00;;;;;26.76;46.33;101003.34;5055331;28;45507;-67
2021/09/16 05:18:01;;;;;;;;;0.00;0.00;;;;;26.73;46.52;100998.94;5056016;28;45464;-66
2021/09/16 05:20:26;;;;;;;;;0.00;0.00;;;;;26.74;46.17;100996.16;5056011;28;45836;-66
2021/09/16 05:22:52;;;;;;;;;0.00;0.00;;;;;26.72;46.56;100991.69;5055759;28;45547;-67
2021/09/16 05:25:18;;;;;;;;;0.00;0.00;;;;;26.75;46.34;101005.22;5036306;28;46853;-67
2021/09/16 05:27:44;;;;;;;;;0.00;0.00;;;;;26.74;46.73;101006.16;5027520;28;45493;-67
2021/09/16 05:30:10;;;;;;;;;0.00;0.00;;;;;26.74;46.30;101006.16;5035917;28;45394;-66
2021/09/16 05:32:37;;;;;;;;;0.00;0.00;;;;;26.73;46.59;101012.59;5036053;28;45529;-66
2021/09/16 05:35:04;;;;;;;;;0.00;0.00;;;;;26.75;46.05;101010.66;5035630;28;45689;-67
2021/09/16 05:37:30;;;;;;;;;0.00;0.00;;;;;26.72;46.58;101011.72;5035778;28;44880;-67
2021/09/16 05:40:01;;;;;;;;;0.00;0.00;;;;;26.73;46.60;101010.72;5034716;28;45538;-67
2021/09/16 05:42:27;;;;;;;;;0.00;0.00;;;;;26.73;46.11;101007.13;5035723;28;45465;-67
2021/09/16 05:44:53;;;;;;;;;0.00;0.00;;;;;26.72;46.40;101010.81;5035157;28;45348;-68
2021/09/16 05:47:19;;;;;;;;;0.00;0.00;;;;;26.71;46.14;101009.06;5035375;28;45435;-66
2021/09/16 05:49:46;;;;;;;;;0.00;0.00;;;;;26.72;46.40;101010.81;5035497;28;45496;-66
2021/09/16 05:52:11;;;;;;;;;0.00;0.00;;;;;26.69;46.00;101009.13;5035681;28;45508;-66
2021/09/16 05:54:37;;;;;;;;;0.00;0.00;;;;;26.70;46.22;101001.81;5035226;28;45994;-66
2021/09/16 05:57:03;;;;;;;;;0.00;0.00;;;;;26.70;45.99;101012.72;5035291;28;45484;-66
2021/09/16 05:59:29;;;;;;;;;0.00;0.00;;;;;26.71;46.32;101015.38;5035065;28;45734;-67
2021/09/16 06:01:55;;;;;;;;;0.00;0.00;;;;;26.72;46.20;101019.00;5035526;28;45551;-67
2021/09/16 06:04:21;;;;;;;;;0.00;0.00;;;;;26.71;45.92;101018.13;5035107;28;45390;-68
2021/09/16 06:06:46;;;;;;;;;0.00;0.00;;;;;26.70;46.22;101018.19;5017284;28;45734;-67
2021/09/16 06:09:11;;;;;;;;;0.00;0.00;;;;;26.70;46.41;101015.44;5036600;28;45479;-67
2021/09/16 06:11:37;;;;;;;;;0.00;0.00;;;;;26.71;46.19;101025.41;5035461;28;45375;-67
2021/09/16 06:14:04;;;;;;;;;0.67;0.67;;;;;26.72;45.82;101032.63;5035079;28;45549;-67
2021/09/16 06:16:29;;;;;;;;;0.67;0.67;;;;;26.72;45.75;101030.81;5035258;28;44873;-67
2021/09/16 06:18:55;;;;;;;;;0.00;0.00;;;;;26.71;45.86;101036.34;5035841;28;45388;-67
2021/09/16 06:21:20;;;;;;;;;6.33;6.33;;;;;26.70;44.85;101040.00;5035594;28;45496;-68
2021/09/16 06:23:46;;;;;;;;;3.67;0.67;;;;;26.44;45.31;101046.69;5034687;28;45402;-68
2021/09/16 06:26:11;;;;;;;;;5.00;5.00;;;;;26.20;45.44;101043.25;5034815;28;45690;-69
2021/09/16 06:28:37;;;;;;;;;5.00;5.00;;;;;25.97;45.33;101056.09;5018153;28;45482;-69
2021/09/16 06:31:02;;;;;;;;;5.00;5.00;;;;;25.74;45.63;101062.56;5035063;28;45716;-69
2021/09/16 06:33:28;;;;;;;;;7.33;7.33;;;;;25.56;45.67;101056.06;5034788;28;45404;-70
2021/09/16 06:35:53;;;;;;;;;8.33;8.33;;;;;25.37;45.71;101052.38;5034385;28;45879;-69
2021/09/16 06:38:19;;;;;;;;;6.33;6.33;;;;;25.24;46.40;101055.59;5034382;28;45734;-69
2021/09/16 06:40:44;;;;;;;;;7.67;7.67;;;;;25.12;46.08;101059.69;5016621;28;45323;-69
2021/09/16 06:43:10;;;;;;;;;7.67;7.67;;;;;25.03;46.55;101062.81;5034643;28;45968;-69
2021/09/16 06:45:35;;;;;;;;;7.00;7.00;;;;;24.97;46.35;101064.91;5034529;28;45540;-69
2021/09/16 06:48:01;;;;;;;;;7.00;6.67;;;;;24.89;46.63;101063.38;5034810;28;45457;-69
2021/09/16 06:50:27;;;;;;;;;8.00;8.00;;;;;24.80;47.03;101063.72;5016982;28;45808;-69
2021/09/16 06:52:52;;;;;;;;;7.67;6.00;;;;;24.72;47.08;101060.44;5033999;28;46216;-69
2021/09/16 06:55:19;;;;;;;;;7.67;7.67;;;;;24.70;46.74;101063.22;5015574;28;45673;-69
2021/09/16 06:57:44;;;;;;;;;10.00;10.00;;;;;24.63;47.08;101055.38;5033961;28;45521;-70
2021/09/16 07:00:10;;;;;;;;;6.00;6.00;;;;;24.57;47.64;101071.94;5016849;28;45391;-70
2021/09/16 07:02:37;;;;;;;;;7.00;7.00;;;;;24.55;47.46;101072.84;5039626;28;45417;-69
2021/09/16 07:05:03;;;;;;;;;6.50;6.50;;;;;24.60;47.41;101063.63;5055207;28;45585;-69
2021/09/16 07:07:29;;;;;;;;;6.33;6.33;;;;;24.62;47.37;101069.91;5055170;28;45488;-69
2021/09/16 07:09:57;;;;;;;;;6.00;6.00;;;;;24.62;47.55;101069.91;5053741;28;45619;-69
2021/09/16 07:12:23;;;;;;;;;8.33;8.33;;;;;24.56;47.38;101062.84;5051575;28;45473;-71
2021/09/16 07:14:49;;;;;;;;;7.00;7.00;;;;;24.60;47.63;101075.38;5048747;28;46074;-64
2021/09/16 07:17:14;;;;;;;;;4.67;4.67;;;;;24.69;47.40;101066.00;5047566;28;45442;-68
2021/09/16 07:19:40;;;;;;;;;5.33;5.00;;;;;24.77;47.36;101071.16;5053437;28;45538;-68
2021/09/16 07:22:05;;;;;;;;;4.00;4.00;;;;;24.80;46.88;101074.59;5053115;28;45443;-68
2021/09/16 07:24:31;;;;;;;;;4.00;4.00;;;;;24.80;46.56;101071.00;5033238;28;45442;-68
2021/09/16 07:26:56;;;;;;;;;3.00;3.00;;;;;24.80;46.64;101074.59;5028474;28;45529;-67
2021/09/16 07:29:24;;;;;;;;;3.00;2.67;;;;;24.85;46.25;101078.03;5042772;28;45546;-68
2021/09/16 07:31:51;;;;;;;;;2.00;2.00;;;;;24.87;46.07;101080.72;5040884;28;45499;-67
2021/09/16 07:34:18;;;;;;;;;2.00;2.00;;;;;24.85;45.43;101078.03;5033778;28;44770;-69
2021/09/16 07:36:45;;;;;;;;;3.67;3.00;;;;;24.81;45.18;101076.41;5034923;28;45725;-70
2021/09/16 07:39:12;;;;;;;;;1.33;1.33;;;;;24.74;45.17;101077.56;5033573;28;45505;-69
2021/09/16 07:41:38;;;;;;;;;4.00;4.00;;;;;24.60;45.14;101093.53;5033935;28;45532;-67
2021/09/16 07:44:04;;;;;;;;;2.00;2.00;;;;;24.38;44.99;101091.63;5033808;28;45533;-69
2021/09/16 07:46:30;;;;;;;;;2.00;2.00;;;;;24.14;45.07;101086.16;5034823;28;45559;-68
2021/09/16 07:48:59;;;;;;;;;2.33;2.33;;;;;23.94;45.72;101086.88;5034643;28;45456;-68
2021/09/16 07:51:25;;;;;;;;;2.67;2.67;;;;;23.95;46.57;101091.38;5031857;28;46338;-68
2021/09/16 07:53:50;;;;;;;;;5.00;3.00;;;;;24.06;46.17;101098.28;5040700;28;45503;-69
2021/09/16 07:56:16;;;;;;;;;0.67;0.67;;;;;24.14;46.32;101086.16;5026677;28;45369;-69
2021/09/16 07:58:45;;;;;;;;;3.00;3.00;;;;;24.24;46.02;101089.44;5015639;28;45878;-69
2021/09/16 08:01:11;;;;;;;;;4.00;4.00;;;;;24.24;45.38;101097.59;5033275;28;45516;-69
2021/09/16 08:03:37;;;;;;;;;2.67;2.33;;;;;24.11;45.37;101098.97;5034676;28;45825;-69
2021/09/16 08:06:04;;;;;;;;;2.33;2.33;;;;;24.07;45.23;101089.16;5044393;28;45439;-67
2021/09/16 08:08:30;;;;;;;;;2.00;2.00;;;;;23.99;45.41;101103.00;5036864;28;45363;-70
2021/09/16 08:10:56;;;;;;;;;2.33;2.33;;;;;23.99;45.46;101094.88;5037490;28;45408;-69
2021/09/16 08:13:23;;;;;;;;;2.33;2.33;;;;;24.09;45.33;101096.31;5056953;28;45523;-69
2021/09/16 08:15:48;;;;;;;;;3.00;3.00;;;;;24.08;46.06;101102.69;5039255;28;45497;-68
2021/09/16 08:18:13;;;;;;;;;3.33;3.33;;;;;24.14;45.97;101107.91;5037981;28;45540;-69
2021/09/16 08:20:42;;;;;;;;;2.33;1.67;;;;;24.20;45.44;101112.22;5056938;28;46272;-68
2021/09/16 08:23:28;;;;;;;;;3.67;2.67;;;;;24.30;44.92;101110.94;5042749;28;45421;-70
2021/09/16 08:25:55;;;;;;;;;2.00;1.67;;;;;24.35;45.31;101105.31;5039608;28;45539;-69
2021/09/16 08:28:21;;;;;;;;;1.67;1.67;;;;;24.38;45.21;101105.22;5056777;28;45413;-69
2021/09/16 08:30:47;;;;;;;;;2.67;2.00;;;;;24.44;45.33;101104.09;5038167;28;47193;-69
2021/09/16 08:33:14;;;;;;;;;1.67;0.67;;;;;24.47;45.11;101096.72;5057663;28;45687;-67
2021/09/16 08:35:39;;;;;;;;;1.33;1.33;;;;;24.53;44.46;101099.22;5056703;28;45420;-68
2021/09/16 08:38:08;;;;;;;;;0.00;0.00;;;;;24.57;44.30;101100.00;5055908;28;45446;-69
2021/09/16 08:40:33;;;;;;;;;1.33;1.33;;;;;24.61;44.32;101100.78;5058276;28;45762;-67
2021/09/16 08:43:01;;;;;;;;;1.00;1.00;;;;;24.54;43.67;101098.28;5055967;28;45452;-67
2021/09/16 08:45:27;;;;;;;;;0.33;0.00;;;;;24.49;44.23;101092.09;5046684;28;45770;-69
2021/09/16 08:47:54;;;;;;;;;1.00;1.00;;;;;24.53;44.49;101101.94;5018621;28;45831;-68
2021/09/16 08:50:24;;;;;;;;;1.00;1.00;;;;;24.62;43.42;101103.44;5035823;28;45583;-68
2021/09/16 08:52:49;;;;;;;;;0.33;0.33;;;;;24.59;44.16;101094.50;5017420;28;45778;-68
2021/09/16 08:55:17;;;;;;;;;1.33;1.33;;;;;24.72;43.58;101103.94;5039182;28;45607;-69
2021/09/16 08:57:44;;;;;;;;;0.33;0.33;;;;;24.78;43.66;101110.97;5047694;28;45445;-69
2021/09/16 09:00:13;;;;;;;;;0.33;0.33;;;;;24.83;43.17;101112.59;5036307;28;45828;-68
2021/09/16 09:02:40;;;;;;;;;2.33;0.33;;;;;24.95;43.03;101117.53;5039092;28;45861;-68
2021/09/16 09:05:08;;;;;;;;;2.00;2.00;;;;;24.99;42.91;101109.28;5055913;28;45357;-69
2021/09/16 09:07:43;;;;;;;;;0.67;0.67;;;;;25.06;42.79;101108.94;5057210;28;45548;-69
2021/09/16 09:10:11;;;;;;;;;1.00;1.00;;;;;25.15;42.15;101107.69;5056076;28;45711;-70
2021/09/16 09:12:38;;;;;;;;;1.00;1.00;;;;;25.19;42.00;101109.34;5039443;28;45382;-68
2021/09/16 09:15:07;;;;;;;;;0.00;0.00;;;;;25.19;41.94;101114.78;5054333;28;45495;-68
2021/09/16 09:17:34;;;;;;;;;0.33;0.33;;;;;25.15;41.98;101113.13;5047574;28;45762;-68
2021/09/16 09:20:08;;;;;;;;;1.33;1.33;;;;;25.13;41.11;101121.34;5042782;28;46089;-68
2021/09/16 09:22:36;;;;;;;;;2.33;2.33;;;;;25.06;41.65;101113.50;5049878;28;45839;-69
2021/09/16 09:25:13;;;;;;;;;2.00;2.00;;;;;24.98;41.74;101115.63;5035115;28;45487;-69
2021/09/16 09:27:49;;;;;;;;;2.00;2.00;;;;;24.94;42.08;101121.22;5032707;28;45917;-68
2021/09/16 09:30:25;;;;;;;;;2.00;2.00;;;;;24.99;41.81;101121.03;5060122;28;45654;-69
2021/09/16 09:33:00;;;;;;;;;2.00;2.00;;;;;25.01;41.81;101119.13;5062438;28;45452;-74
2021/09/16 09:35:41;;;;;;;;;2.67;2.67;;;;;25.05;41.86;101117.19;5053662;28;45879;-76
2021/09/16 09:38:18;;;;;;;;;2.00;2.00;;;;;25.10;41.42;101120.59;5055951;28;45447;-67
2021/09/16 09:40:53;;;;;;;;;2.00;2.00;;;;;25.05;41.67;101122.63;5037440;28;45457;-69
2021/09/16 09:43:37;;;;;;;;;3.33;2.33;;;;;25.04;41.93;101121.72;5054843;28;45383;-66
2021/09/16 09:46:10;;;;;;;;;3.00;1.00;;;;;25.02;41.54;101107.28;5055148;28;45464;-66
2021/09/16 09:48:42;;;;;;;;;2.67;2.67;;;;;25.05;41.36;101114.47;5054735;28;45577;-66
2021/09/16 09:51:09;;;;;;;;;4.00;4.00;;;;;24.97;41.49;101114.75;5054821;28;46061;-68
2021/09/16 09:53:40;;;;;;;;;2.00;2.00;;;;;24.98;41.71;101118.38;5055431;28;45764;-68
2021/09/16 09:56:12;;;;;;;;;3.33;3.33;;;;;24.99;41.33;101118.31;5035940;28;45280;-69
2021/09/16 09:58:39;;;;;;;;;3.67;3.67;;;;;24.97;41.62;101114.75;5034354;28;45675;-69
2021/09/16 10:01:23;;;;;;;;;3.67;3.67;;;;;24.91;41.03;101109.56;5018571;28;46742;-67
2021/09/16 10:03:51;;;;;;;;;4.00;2.00;;;;;24.78;41.60;101120.03;5034710;28;45446;-67
2021/09/16 10:06:17;;;;;;;;;2.00;2.00;;;;;24.64;42.25;101122.41;5043005;28;45468;-68
2021/09/16 10:08:42;;;;;;;;;1.67;1.67;;;;;24.59;42.17;101110.81;5037168;28;45544;-67
2021/09/16 10:11:08;;;;;;;;;5.00;4.00;;;;;24.52;41.88;101115.59;5054914;28;46455;-69
2021/09/16 10:13:35;;;;;;;;;5.33;3.33;;;;;24.45;42.06;101112.19;5054037;28;45493;-67
2021/09/16 10:16:04;;;;;;;;;2.67;2.67;;;;;24.46;42.11;101111.25;5054551;28;45502;-68
2021/09/16 10:18:31;;;;;;;;;2.00;2.00;;;;;24.44;42.07;101113.16;5054968;28;45482;-68
2021/09/16 10:21:00;;;;;;;;;2.33;2.33;;;;;24.44;42.12;101110.44;5053485;28;46799;-67
2021/09/16 10:23:28;;;;;;;;;4.67;4.00;;;;;24.44;41.77;101105.00;5051758;28;45485;-66
2021/09/16 10:25:54;;;;;;;;;2.00;2.00;;;;;24.36;41.91;101109.84;5053779;28;45412;-67
2021/09/16 10:28:21;;;;;;;;;5.67;5.67;;;;;24.32;41.50;101105.47;5047279;28;45566;-68
2021/09/16 10:30:51;;;;;;;;;2.33;2.33;;;;;24.25;42.02;101101.19;5034568;28;45390;-68
2021/09/16 10:33:29;;;;;;;;;2.00;2.00;;;;;24.23;41.87;101111.22;5033766;28;45812;-68
2021/09/16 10:35:57;;;;;;;;;2.67;2.67;;;;;24.15;41.58;101104.22;5038808;28;45477;-68
2021/09/16 10:38:30;;;;;;;;;3.00;3.00;;;;;24.11;42.04;101098.97;5053859;28;45717;-68
2021/09/16 10:41:17;;;;;;;;;3.00;2.67;;;;;24.12;42.01;101103.47;5053352;28;46255;-67
2021/09/16 10:43:59;;;;;;;;;2.00;2.00;;;;;24.16;42.43;101103.31;5053520;28;45448;-68
2021/09/16 10:46:24;;;;;;;;;4.00;4.00;;;;;24.23;42.15;101103.94;5053396;28;45479;-67
2021/09/16 10:48:57;;;;;;;;;4.33;2.67;;;;;24.26;42.23;101098.41;5054170;28;45385;-67
2021/09/16 10:51:41;;;;;;;;;5.33;3.67;;;;;24.36;42.00;101091.69;5053500;28;46329;-67
2021/09/16 10:54:33;;;;;;;;;1.00;1.00;;;;;24.53;41.83;101101.06;5053793;28;45797;-68
2021/09/16 10:57:07;;;;;;;;;2.00;2.00;;;;;24.63;41.74;101091.59;5045075;28;45504;-67
2021/09/16 10:59:51;;;;;;;;;2.33;2.33;;;;;24.72;41.59;101098.50;5053408;28;44808;-66
2021/09/16 11:02:24;;;;;;;;;2.00;2.00;;;;;24.73;41.58;101094.84;5053459;28;46185;-68
2021/09/16 11:05:12;;;;;;;;;1.25;1.25;;;;;24.73;41.67;101089.41;5053976;28;45398;-68
2021/09/16 11:07:38;;;;;;;;;3.67;3.67;;;;;24.73;41.68;101092.13;5053758;28;45452;-66
2021/09/16 11:10:13;;;;;;;;;3.00;2.00;;;;;24.75;41.87;101092.97;5055068;28;45510;-68
2021/09/16 11:12:39;;;;;;;;;3.00;2.00;;;;;24.79;41.88;101083.72;5054253;28;45520;-67
2021/09/16 11:15:06;;;;;;;;;3.00;3.00;;;;;24.80;41.73;101080.03;5052331;28;45142;-67
2021/09/16 11:17:32;;;;;;;;;1.67;1.67;;;;;24.83;41.14;101076.34;5054497;28;45340;-67
2021/09/16 11:19:57;;;;;;;;;4.67;4.67;;;;;24.80;40.80;101082.75;5054477;28;45409;-66
2021/09/16 11:22:24;;;;;;;;;3.33;2.33;;;;;24.76;41.16;101081.13;5055449;28;45398;-67
2021/09/16 11:24:54;;;;;;;;;3.00;3.00;;;;;24.77;41.27;101080.19;5036493;28;45435;-66